Time;durP1;ratioP1;P1;durP2;ratioP2;P2;SDS_P1;SDS_P2;PMS_P1;PMS_P2;Temp;Humidity;BMP_temperature;BMP_pressure;BME280_temperature;BME280_humidity;BME280_pressure;Samples;Min_cycle;Max_cycle;Signal;HPM_P1;HPM_P2
2021/09/19 00:01:54;;;;;;;;;;;;;;;;;;5053530;28;20011;-67
2021/09/19 00:04:21;;;;;;;;;;;;;;;;;;5052986;28;20075;-64
2021/09/19 00:06:48;;;;;;;;;;;;;;;;;;5052855;28;20493;-65
2021/09/19 00:09:15;;;;;;;;;;;;;;;;;;5054251;28;20029;-65
2021/09/19 00:11:43;;;;;;;;;;;;;;;;;;5053355;28;20017;-65
2021/09/19 00:14:10;;;;;;;;;;;;;;;;;;5052735;28;20071;-65
2021/09/19 00:16:37;;;;;;;;;;;;;;;;;;5052482;28;20477;-65
2021/09/19 00:19:04;;;;;;;;;;;;;;;;;;5053022;28;20017;-65
2021/09/19 00:21:31;;;;;;;;;;;;;;;;;;5052687;28;20025;-66
2021/09/19 00:23:58;;;;;;;;;;;;;;;;;;5052100;28;20029;-66
2021/09/19 00:26:25;;;;;;;;;;;;;;;;;;5052894;28;20013;-66
2021/09/19 00:28:52;;;;;;;;;;;;;;;;;;5053018;28;20029;-65
2021/09/19 00:31:19;;;;;;;;;;;;;;;;;;5052657;28;20010;-66
2021/09/19 00:33:46;;;;;;;;;;;;;;;;;;5052552;28;20531;-65
2021/09/19 00:36:13;;;;;;;;;;;;;;;;;;5052426;28;20009;-65
2021/09/19 00:38:39;;;;;;;;;;;;;;;;;;5052798;28;20009;-65
2021/09/19 00:41:06;;;;;;;;;;;;;;;;;;5052816;28;20493;-66
2021/09/19 00:43:33;;;;;;;;;;;;;;;;;;5052012;28;20033;-65
2021/09/19 00:46:00;;;;;;;;;;;;;;;;;;5052858;28;20017;-68
2021/09/19 00:48:27;;;;;;;;;;;;;;;;;;5052774;28;20472;-65
2021/09/19 00:50:54;;;;;;;;;;;;;;;;;;5052376;28;20013;-65
2021/09/19 00:53:21;;;;;;;;;;;;;;;;;;5052604;28;20037;-66
2021/09/19 00:55:48;;;;;;;;;;;;;;;;;;5052387;28;20009;-65
2021/09/19 00:58:15;;;;;;;;;;;;;;;;;;5052381;28;20494;-66
2021/09/19 01:00:47;;;;;;;;;;;;;;;;;;5052518;28;20013;-65
2021/09/19 01:03:14;;;;;;;;;;;;;;;;;;5051916;28;20048;-64
2021/09/19 01:05:41;;;;;;;;;;;;;;;;;;5052038;28;20009;-65
2021/09/19 01:08:08;;;;;;;;;;;;;;;;;;5052371;28;20009;-65
2021/09/19 01:10:35;;;;;;;;;;;;;;;;;;5052303;28;20025;-65
2021/09/19 01:13:01;;;;;;;;;;;;;;;;;;5052233;28;20025;-65
2021/09/19 01:15:28;;;;;;;;;;;;;;;;;;5051988;28;20009;-65
2021/09/19 01:17:55;;;;;;;;;;;;;;;;;;5051992;28;20381;-66
2021/09/19 01:20:22;;;;;;;;;;;;;;;;;;5052092;28;20013;-65
2021/09/19 01:22:49;;;;;;;;;;;;;;;;;;5052094;28;20508;-65
2021/09/19 01:25:16;;;;;;;;;;;;;;;;;;5052076;28;20009;-65
2021/09/19 01:27:43;;;;;;;;;;;;;;;;;;5051762;28;20009;-65
2021/09/19 01:30:10;;;;;;;;;;;;;;;;;;5051617;28;20535;-65
2021/09/19 01:32:37;;;;;;;;;;;;;;;;;;5052257;28;20014;-65
2021/09/19 01:35:04;;;;;;;;;;;;;;;;;;5051787;28;20027;-65
2021/09/19 01:37:31;;;;;;;;;;;;;;;;;;5051549;28;20016;-65
2021/09/19 01:39:58;;;;;;;;;;;;;;;;;;5052350;28;20009;-65
2021/09/19 01:42:25;;;;;;;;;;;;;;;;;;5051687;28;20009;-65
2021/09/19 01:44:51;;;;;;;;;;;;;;;;;;5051622;28;20025;-65
2021/09/19 01:47:18;;;;;;;;;;;;;;;;;;5052196;28;20017;-65
2021/09/19 01:49:46;;;;;;;;;;;;;;;;;;5052582;28;20033;-65
2021/09/19 01:52:13;;;;;;;;;;;;;;;;;;5052352;28;20055;-68
2021/09/19 01:54:40;;;;;;;;;;;;;;;;;;5052834;28;20513;-65
2021/09/19 01:57:07;;;;;;;;;;;;;;;;;;5055835;28;20017;-65
2021/09/19 01:59:33;;;;;;;;;;;;;;;;;;5055567;28;20017;-65
2021/09/19 02:02:00;;;;;;;;;;;;;;;;;;5054969;28;20472;-66
2021/09/19 02:04:27;;;;;;;;;;;;;;;;;;5055349;28;20025;-65
2021/09/19 02:06:54;;;;;;;;;;;;;;;;;;5055253;28;20017;-65
2021/09/19 02:09:21;;;;;;;;;;;;;;;;;;5055193;28;20021;-64
2021/09/19 02:11:48;;;;;;;;;;;;;;;;;;5055360;28;20009;-65
2021/09/19 02:14:15;;;;;;;;;;;;;;;;;;5056236;28;20064;-65
2021/09/19 02:16:42;;;;;;;;;;;;;;;;;;5056824;28;20009;-65
2021/09/19 02:19:09;;;;;;;;;;;;;;;;;;5056544;28;20010;-66
2021/09/19 02:21:36;;;;;;;;;;;;;;;;;;5055978;28;20009;-65
2021/09/19 02:24:03;;;;;;;;;;;;;;;;;;5075974;22;20526;-64
2021/09/19 02:26:30;;;;;;;;;;;;;;;;;;5048477;28;20555;-64
2021/09/19 02:28:56;;;;;;;;;;;;;;;;;;5044005;28;20014;-64
2021/09/19 02:31:23;;;;;;;;;;;;;;;;;;5034582;28;20010;-64
2021/09/19 02:33:50;;;;;;;;;;;;;;;;;;5034393;28;20519;-64
2021/09/19 02:36:17;;;;;;;;;;;;;;;;;;5034287;28;20020;-65
2021/09/19 02:38:44;;;;;;;;;;;;;;;;;;5034156;28;20010;-65
2021/09/19 02:41:11;;;;;;;;;;;;;;;;;;5034233;28;20009;-64
2021/09/19 02:43:38;;;;;;;;;;;;;;;;;;5034579;28;20009;-64
2021/09/19 02:46:05;;;;;;;;;;;;;;;;;;5034168;28;20010;-64
2021/09/19 02:48:32;;;;;;;;;;;;;;;;;;5034383;28;20010;-65
2021/09/19 02:50:59;;;;;;;;;;;;;;;;;;5034140;28;20032;-64
2021/09/19 02:53:26;;;;;;;;;;;;;;;;;;5033810;28;20388;-64
2021/09/19 02:55:53;;;;;;;;;;;;;;;;;;5033883;28;20020;-64
2021/09/19 02:58:20;;;;;;;;;;;;;;;;;;5034280;28;20009;-64
2021/09/19 03:00:47;;;;;;;;;;;;;;;;;;5034376;28;20408;-64
2021/09/19 03:03:14;;;;;;;;;;;;;;;;;;5033989;28;20010;-65
2021/09/19 03:05:41;;;;;;;;;;;;;;;;;;5033564;28;20037;-64
2021/09/19 03:08:08;;;;;;;;;;;;;;;;;;5033044;28;20033;-65
2021/09/19 03:10:36;;;;;;;;;;;;;;;;;;5034237;28;20025;-64
2021/09/19 03:13:03;;;;;;;;;;;;;;;;;;5033730;28;20057;-64
2021/09/19 03:15:30;;;;;;;;;;;;;;;;;;5033750;28;20033;-65
2021/09/19 03:17:57;;;;;;;;;;;;;;;;;;5034034;28;20014;-64
2021/09/19 03:20:24;;;;;;;;;;;;;;;;;;5033794;28;20080;-65
2021/09/19 03:22:51;;;;;;;;;;;;;;;;;;5033595;28;20010;-65
2021/09/19 03:25:18;;;;;;;;;;;;;;;;;;5033230;28;20492;-65
2021/09/19 03:27:45;;;;;;;;;;;;;;;;;;5033844;28;20010;-64
2021/09/19 03:30:12;;;;;;;;;;;;;;;;;;5033447;28;20022;-64
2021/09/19 03:32:39;;;;;;;;;;;;;;;;;;5033314;28;20480;-63
2021/09/19 03:35:06;;;;;;;;;;;;;;;;;;5033223;28;20397;-64
2021/09/19 03:37:33;;;;;;;;;;;;;;;;;;5033389;28;20017;-64
2021/09/19 03:40:00;;;;;;;;;;;;;;;;;;5033647;28;20010;-64
2021/09/19 03:42:26;;;;;;;;;;;;;;;;;;5033230;28;20377;-64
2021/09/19 03:44:53;;;;;;;;;;;;;;;;;;5032795;28;20026;-64
2021/09/19 03:47:20;;;;;;;;;;;;;;;;;;5033322;28;20206;-64
2021/09/19 03:49:47;;;;;;;;;;;;;;;;;;5032914;28;20044;-64
2021/09/19 03:52:14;;;;;;;;;;;;;;;;;;5033158;28;20473;-64
2021/09/19 03:54:41;;;;;;;;;;;;;;;;;;5032905;28;20026;-67
2021/09/19 03:57:08;;;;;;;;;;;;;;;;;;5033252;28;20014;-64
2021/09/19 03:59:35;;;;;;;;;;;;;;;;;;5032690;28;20380;-64
2021/09/19 04:02:02;;;;;;;;;;;;;;;;;;5033164;28;20009;-65
2021/09/19 04:04:30;;;;;;;;;;;;;;;;;;5032783;28;20057;-64
2021/09/19 04:06:57;;;;;;;;;;;;;;;;;;5033215;28;20075;-65
2021/09/19 04:09:24;;;;;;;;;;;;;;;;;;5033561;28;20346;-64
2021/09/19 04:11:53;;;;;;;;;;;;;;;;;;5033023;28;20052;-65
2021/09/19 04:14:20;;;;;;;;;;;;;;;;;;5033216;28;20033;-64
2021/09/19 04:16:47;;;;;;;;;;;;;;;;;;5033351;28;20016;-64
2021/09/19 04:19:14;;;;;;;;;;;;;;;;;;5033662;28;20014;-65
2021/09/19 04:21:41;;;;;;;;;;;;;;;;;;5033505;28;20009;-65
2021/09/19 04:24:08;;;;;;;;;;;;;;;;;;5032986;28;20035;-65
2021/09/19 04:26:35;;;;;;;;;;;;;;;;;;5033393;28;20093;-64
2021/09/19 04:29:01;;;;;;;;;;;;;;;;;;5033380;28;20032;-65
2021/09/19 04:31:28;;;;;;;;;;;;;;;;;;5033206;28;20490;-64
2021/09/19 04:33:55;;;;;;;;;;;;;;;;;;5033661;28;20026;-64
2021/09/19 04:36:22;;;;;;;;;;;;;;;;;;5033350;28;20010;-64
2021/09/19 04:38:49;;;;;;;;;;;;;;;;;;5033806;28;20009;-64
2021/09/19 04:41:16;;;;;;;;;;;;;;;;;;5032481;28;20010;-64
2021/09/19 04:43:43;;;;;;;;;;;;;;;;;;5033018;28;20017;-63
2021/09/19 04:46:10;;;;;;;;;;;;;;;;;;5032137;28;20010;-67
2021/09/19 04:48:37;;;;;;;;;;;;;;;;;;5032395;28;20014;-65
2021/09/19 04:51:04;;;;;;;;;;;;;;;;;;5032649;28;20029;-64
2021/09/19 04:53:31;;;;;;;;;;;;;;;;;;5033068;28;20010;-63
2021/09/19 04:55:57;;;;;;;;;;;;;;;;;;5032276;28;20010;-64
2021/09/19 04:58:24;;;;;;;;;;;;;;;;;;5032410;28;20017;-64
2021/09/19 05:00:51;;;;;;;;;;;;;;;;;;5032151;28;20385;-64
2021/09/19 05:03:18;;;;;;;;;;;;;;;;;;5032340;28;20021;-65
2021/09/19 05:05:45;;;;;;;;;;;;;;;;;;5032384;28;20048;-64
2021/09/19 05:08:12;;;;;;;;;;;;;;;;;;5032152;28;20010;-63
2021/09/19 05:10:39;;;;;;;;;;;;;;;;;;5032397;28;20062;-64
2021/09/19 05:13:06;;;;;;;;;;;;;;;;;;5032196;28;20384;-64
2021/09/19 05:15:33;;;;;;;;;;;;;;;;;;5032054;28;20453;-64
2021/09/19 05:18:00;;;;;;;;;;;;;;;;;;5032210;28;20010;-66
2021/09/19 05:20:27;;;;;;;;;;;;;;;;;;5032463;28;20017;-64
2021/09/19 05:22:54;;;;;;;;;;;;;;;;;;5032057;28;20010;-64
2021/09/19 05:25:21;;;;;;;;;;;;;;;;;;5031796;28;20029;-66
2021/09/19 05:27:50;;;;;;;;;;;;;;;;;;5031857;28;20033;-64
2021/09/19 05:30:17;;;;;;;;;;;;;;;;;;5033697;28;20032;-65
2021/09/19 05:32:44;;;;;;;;;;;;;;;;;;5035881;28;20477;-64
2021/09/19 05:35:11;;;;;;;;;;;;;;;;;;5035751;28;20025;-64
2021/09/19 05:37:38;;;;;;;;;;;;;;;;;;5035778;28;20010;-64
2021/09/19 05:40:05;;;;;;;;;;;;;;;;;;5035695;28;20492;-64
2021/09/19 05:42:31;;;;;;;;;;;;;;;;;;5035709;28;20014;-64
2021/09/19 05:44:58;;;;;;;;;;;;;;;;;;5035267;28;20026;-64
2021/09/19 05:47:25;;;;;;;;;;;;;;;;;;5035371;28;20017;-65
2021/09/19 05:49:52;;;;;;;;;;;;;;;;;;5035681;28;20010;-64
2021/09/19 05:52:19;;;;;;;;;;;;;;;;;;5035504;28;20014;-63
2021/09/19 05:54:46;;;;;;;;;;;;;;;;;;5035096;28;20033;-64
2021/09/19 05:57:13;;;;;;;;;;;;;;;;;;5035502;28;20010;-64
2021/09/19 05:59:40;;;;;;;;;;;;;;;;;;5035650;28;20384;-64
2021/09/19 06:02:07;;;;;;;;;;;;;;;;;;5035438;28;20009;-64
2021/09/19 06:04:34;;;;;;;;;;;;;;;;;;5035193;28;20026;-65
2021/09/19 06:07:01;;;;;;;;;;;;;;;;;;5035107;28;20492;-66
2021/09/19 06:09:27;;;;;;;;;;;;;;;;;;5035073;28;20013;-66
2021/09/19 06:11:54;;;;;;;;;;;;;;;;;;5035208;28;20026;-66
2021/09/19 06:14:21;;;;;;;;;;;;;;;;;;5035127;28;20385;-66
2021/09/19 06:16:48;;;;;;;;;;;;;;;;;;5035103;28;20022;-66
2021/09/19 06:19:15;;;;;;;;;;;;;;;;;;5035487;28;20017;-66
2021/09/19 06:21:42;;;;;;;;;;;;;;;;;;5034990;28;20487;-65
2021/09/19 06:24:09;;;;;;;;;;;;;;;;;;5034327;28;20033;-66
2021/09/19 06:26:36;;;;;;;;;;;;;;;;;;5035237;28;20015;-66
2021/09/19 06:29:03;;;;;;;;;;;;;;;;;;5035023;28;20010;-65
2021/09/19 06:31:30;;;;;;;;;;;;;;;;;;5034699;28;20026;-68
2021/09/19 06:33:57;;;;;;;;;;;;;;;;;;5034704;28;20033;-64
2021/09/19 06:36:24;;;;;;;;;;;;;;;;;;5034729;28;20009;-67
2021/09/19 06:38:51;;;;;;;;;;;;;;;;;;5035057;28;20010;-66
2021/09/19 06:41:18;;;;;;;;;;;;;;;;;;5034844;28;20010;-64
2021/09/19 06:43:45;;;;;;;;;;;;;;;;;;5034751;28;20029;-64
2021/09/19 06:46:12;;;;;;;;;;;;;;;;;;5034244;28;20017;-63
2021/09/19 06:48:39;;;;;;;;;;;;;;;;;;5034367;28;20476;-65
2021/09/19 06:51:05;;;;;;;;;;;;;;;;;;5034492;28;20022;-64
2021/09/19 06:53:33;;;;;;;;;;;;;;;;;;5034498;28;20083;-64
2021/09/19 06:56:00;;;;;;;;;;;;;;;;;;5034445;28;20017;-66
2021/09/19 06:58:27;;;;;;;;;;;;;;;;;;5034238;28;20010;-66
2021/09/19 07:00:54;;;;;;;;;;;;;;;;;;5034446;28;20010;-66
2021/09/19 07:03:21;;;;;;;;;;;;;;;;;;5034492;28;20017;-65
2021/09/19 07:05:48;;;;;;;;;;;;;;;;;;5033519;28;20489;-66
2021/09/19 07:08:15;;;;;;;;;;;;;;;;;;5034497;28;20016;-65
2021/09/19 07:10:42;;;;;;;;;;;;;;;;;;5034005;28;20049;-66
2021/09/19 07:13:09;;;;;;;;;;;;;;;;;;5033829;28;20485;-67
2021/09/19 07:15:36;;;;;;;;;;;;;;;;;;5033539;28;20026;-66
2021/09/19 07:18:03;;;;;;;;;;;;;;;;;;5034044;28;20009;-66
2021/09/19 07:20:29;;;;;;;;;;;;;;;;;;5034109;28;20188;-66
2021/09/19 07:22:56;;;;;;;;;;;;;;;;;;5034142;28;20379;-66
2021/09/19 07:25:23;;;;;;;;;;;;;;;;;;5033372;28;20037;-64
2021/09/19 07:27:50;;;;;;;;;;;;;;;;;;5033764;28;20014;-66
2021/09/19 07:30:17;;;;;;;;;;;;;;;;;;5033735;28;20017;-66
2021/09/19 07:32:44;;;;;;;;;;;;;;;;;;5033050;28;20354;-66
2021/09/19 07:35:11;;;;;;;;;;;;;;;;;;5033494;28;20025;-66
2021/09/19 07:37:38;;;;;;;;;;;;;;;;;;5033489;28;20017;-66
2021/09/19 07:40:05;;;;;;;;;;;;;;;;;;5033306;28;20393;-66
2021/09/19 07:42:32;;;;;;;;;;;;;;;;;;5033466;28;20017;-66
2021/09/19 07:44:59;;;;;;;;;;;;;;;;;;5033423;28;20025;-67
2021/09/19 07:47:26;;;;;;;;;;;;;;;;;;5033066;28;20477;-66
2021/09/19 07:49:52;;;;;;;;;;;;;;;;;;5033453;28;20010;-67
2021/09/19 07:52:20;;;;;;;;;;;;;;;;;;5032835;28;20025;-66
2021/09/19 07:54:47;;;;;;;;;;;;;;;;;;5032714;28;20033;-67
2021/09/19 07:57:14;;;;;;;;;;;;;;;;;;5033259;28;20432;-65
2021/09/19 07:59:41;;;;;;;;;;;;;;;;;;5033397;28;20064;-66
2021/09/19 08:02:08;;;;;;;;;;;;;;;;;;5032794;28;20187;-66
2021/09/19 08:04:35;;;;;;;;;;;;;;;;;;5032630;28;20026;-66
2021/09/19 08:07:02;;;;;;;;;;;;;;;;;;5033024;28;20010;-66
2021/09/19 08:09:30;;;;;;;;;;;;;;;;;;5032827;28;20389;-67
2021/09/19 08:11:57;;;;;;;;;;;;;;;;;;5032752;28;20424;-66
2021/09/19 08:14:24;;;;;;;;;;;;;;;;;;5032391;28;20033;-66
2021/09/19 08:16:51;;;;;;;;;;;;;;;;;;5032863;28;20018;-66
2021/09/19 08:19:18;;;;;;;;;;;;;;;;;;5032416;28;20009;-67
2021/09/19 08:21:45;;;;;;;;;;;;;;;;;;5033031;28;20016;-66
2021/09/19 08:24:12;;;;;;;;;;;;;;;;;;5032129;28;20029;-66
2021/09/19 08:26:39;;;;;;;;;;;;;;;;;;5062858;22;20412;-71
2021/09/19 08:29:06;;;;;;;;;;;;;;;;;;5041835;28;20468;-71
2021/09/19 08:31:33;;;;;;;;;;;;;;;;;;5047860;28;20018;-71
2021/09/19 08:34:00;;;;;;;;;;;;;;;;;;5052185;28;20017;-70
2021/09/19 08:36:27;;;;;;;;;;;;;;;;;;5051995;28;20025;-70
2021/09/19 08:38:54;;;;;;;;;;;;;;;;;;5052990;28;20017;-71
2021/09/19 08:41:21;;;;;;;;;;;;;;;;;;5052444;28;20285;-71
2021/09/19 08:43:48;;;;;;;;;;;;;;;;;;5052216;28;20014;-71
2021/09/19 08:46:15;;;;;;;;;;;;;;;;;;5052027;28;20079;-71
2021/09/19 08:48:42;;;;;;;;;;;;;;;;;;5052087;28;20013;-71
2021/09/19 08:51:09;;;;;;;;;;;;;;;;;;5051740;28;20021;-70
2021/09/19 08:53:36;;;;;;;;;;;;;;;;;;5052085;28;20017;-71
2021/09/19 08:56:03;;;;;;;;;;;;;;;;;;5051796;28;20031;-71
2021/09/19 08:58:30;;;;;;;;;;;;;;;;;;5051733;28;20326;-71
2021/09/19 09:00:57;;;;;;;;;;;;;;;;;;5052274;28;20009;-70
2021/09/19 09:03:24;;;;;;;;;;;;;;;;;;5052218;28;20032;-71
2021/09/19 09:05:50;;;;;;;;;;;;;;;;;;5054155;28;20026;-71
2021/09/19 09:08:17;;;;;;;;;;;;;;;;;;5056333;28;20020;-70
2021/09/19 09:10:44;;;;;;;;;;;;;;;;;;5055822;28;20465;-71
2021/09/19 09:13:11;;;;;;;;;;;;;;;;;;5056087;28;20013;-71
2021/09/19 09:15:38;;;;;;;;;;;;;;;;;;5055967;28;20032;-71
2021/09/19 09:18:06;;;;;;;;;;;;;;;;;;5055537;28;20379;-71
2021/09/19 09:20:33;;;;;;;;;;;;;;;;;;5056390;28;20075;-71
2021/09/19 09:23:00;;;;;;;;;;;;;;;;;;5057104;28;20499;-71
2021/09/19 09:25:28;;;;;;;;;;;;;;;;;;5055316;28;20033;-71
2021/09/19 09:27:55;;;;;;;;;;;;;;;;;;5055805;28;20377;-71
2021/09/19 09:30:22;;;;;;;;;;;;;;;;;;5055782;28;20009;-71
2021/09/19 09:32:49;;;;;;;;;;;;;;;;;;5056002;28;20025;-71
2021/09/19 09:35:16;;;;;;;;;;;;;;;;;;5055564;28;20013;-71
2021/09/19 09:37:42;;;;;;;;;;;;;;;;;;5055209;28;20016;-71
2021/09/19 09:40:09;;;;;;;;;;;;;;;;;;5055835;28;20013;-71
2021/09/19 09:42:36;;;;;;;;;;;;;;;;;;5058240;28;20010;-70
2021/09/19 09:45:03;;;;;;;;;;;;;;;;;;5058007;28;20009;-71
2021/09/19 09:47:32;;;;;;;;;;;;;;;;;;5059651;28;20484;-70
2021/09/19 09:49:59;;;;;;;;;;;;;;;;;;5055116;28;20372;-71
2021/09/19 09:52:26;;;;;;;;;;;;;;;;;;5055387;28;20025;-71
2021/09/19 09:54:53;;;;;;;;;;;;;;;;;;5055317;28;20010;-71
2021/09/19 09:57:20;;;;;;;;;;;;;;;;;;5055068;28;20025;-71
2021/09/19 09:59:47;;;;;;;;;;;;;;;;;;5055466;28;20017;-71
2021/09/19 10:02:15;;;;;;;;;;;;;;;;;;5055163;28;20016;-71
2021/09/19 10:04:42;;;;;;;;;;;;;;;;;;5055997;28;20014;-71
2021/09/19 10:07:09;;;;;;;;;;;;;;;;;;5055023;28;20032;-70
2021/09/19 10:09:36;;;;;;;;;;;;;;;;;;5055263;28;20019;-71
2021/09/19 10:12:03;;;;;;;;;;;;;;;;;;5054916;28;20026;-71
2021/09/19 10:14:30;;;;;;;;;;;;;;;;;;5054809;28;20010;-71
2021/09/19 10:16:57;;;;;;;;;;;;;;;;;;5055179;28;20032;-71
2021/09/19 10:19:23;;;;;;;;;;;;;;;;;;5054829;28;20388;-71
2021/09/19 10:21:51;;;;;;;;;;;;;;;;;;5054853;28;20088;-71
2021/09/19 10:24:17;;;;;;;;;;;;;;;;;;5054836;28;20101;-71
2021/09/19 10:26:44;;;;;;;;;;;;;;;;;;5054504;28;20044;-71
2021/09/19 10:29:11;;;;;;;;;;;;;;;;;;5055002;28;20461;-71
2021/09/19 10:31:38;;;;;;;;;;;;;;;;;;5054455;28;20029;-70
2021/09/19 10:34:05;;;;;;;;;;;;;;;;;;5054629;28;20009;-71
2021/09/19 10:36:32;;;;;;;;;;;;;;;;;;5054176;28;20025;-71
2021/09/19 10:38:59;;;;;;;;;;;;;;;;;;5054357;28;20064;-70
2021/09/19 10:41:26;;;;;;;;;;;;;;;;;;5054578;28;20014;-71
2021/09/19 10:43:53;;;;;;;;;;;;;;;;;;5054360;28;20009;-71
2021/09/19 10:46:20;;;;;;;;;;;;;;;;;;5054035;28;20033;-71
2021/09/19 10:48:48;;;;;;;;;;;;;;;;;;5054393;28;20013;-71
2021/09/19 10:51:14;;;;;;;;;;;;;;;;;;5054442;28;20016;-71
2021/09/19 10:53:41;;;;;;;;;;;;;;;;;;5054224;28;20506;-71
2021/09/19 10:56:08;;;;;;;;;;;;;;;;;;5053776;28;20060;-71
2021/09/19 10:58:35;;;;;;;;;;;;;;;;;;5053939;28;20016;-71
2021/09/19 11:01:02;;;;;;;;;;;;;;;;;;5054006;28;20009;-71
2021/09/19 11:03:29;;;;;;;;;;;;;;;;;;5054150;28;20020;-71
2021/09/19 11:05:56;;;;;;;;;;;;;;;;;;5053390;28;20507;-70
2021/09/19 11:08:23;;;;;;;;;;;;;;;;;;5054262;28;20009;-71
2021/09/19 11:10:50;;;;;;;;;;;;;;;;;;5053977;28;20017;-71
2021/09/19 11:13:17;;;;;;;;;;;;;;;;;;5053723;28;20025;-71
2021/09/19 11:15:44;;;;;;;;;;;;;;;;;;5053272;28;20401;-71
2021/09/19 11:18:11;;;;;;;;;;;;;;;;;;5053791;28;20017;-71
2021/09/19 11:20:38;;;;;;;;;;;;;;;;;;5053572;28;20009;-71
2021/09/19 11:23:04;;;;;;;;;;;;;;;;;;5053805;28;20578;-70
2021/09/19 11:25:31;;;;;;;;;;;;;;;;;;5053598;28;20040;-71
2021/09/19 11:27:58;;;;;;;;;;;;;;;;;;5053206;28;20088;-71
2021/09/19 11:30:28;;;;;;;;;;;;;;;;;;5053530;28;20477;-71
2021/09/19 11:32:55;;;;;;;;;;;;;;;;;;5053054;28;20032;-71
2021/09/19 11:35:22;;;;;;;;;;;;;;;;;;5053271;28;20010;-71
2021/09/19 11:37:49;;;;;;;;;;;;;;;;;;5053669;28;20014;-70
2021/09/19 11:40:16;;;;;;;;;;;;;;;;;;5053318;28;20016;-71
2021/09/19 11:42:43;;;;;;;;;;;;;;;;;;5053468;28;20013;-71
2021/09/19 11:45:10;;;;;;;;;;;;;;;;;;5053172;28;20009;-71
2021/09/19 11:47:37;;;;;;;;;;;;;;;;;;5053336;28;20022;-71
2021/09/19 11:50:03;;;;;;;;;;;;;;;;;;5053078;28;20502;-71
2021/09/19 11:52:30;;;;;;;;;;;;;;;;;;5053279;28;20022;-71
2021/09/19 11:54:57;;;;;;;;;;;;;;;;;;5052557;28;20013;-71
2021/09/19 11:57:24;;;;;;;;;;;;;;;;;;5052659;28;20048;-70
2021/09/19 11:59:51;;;;;;;;;;;;;;;;;;5052909;28;20009;-69
2021/09/19 12:02:18;;;;;;;;;;;;;;;;;;5052846;28;20067;-71
2021/09/19 12:04:45;;;;;;;;;;;;;;;;;;5052483;28;20010;-71
2021/09/19 12:07:12;;;;;;;;;;;;;;;;;;5052729;28;20115;-71
2021/09/19 12:09:39;;;;;;;;;;;;;;;;;;5052912;28;20009;-71
2021/09/19 12:12:06;;;;;;;;;;;;;;;;;;5052524;28;20022;-71
2021/09/19 12:14:33;;;;;;;;;;;;;;;;;;5052213;28;20369;-71
2021/09/19 12:17:02;;;;;;;;;;;;;;;;;;5052156;28;21669;-70
2021/09/19 12:19:28;;;;;;;;;;;;;;;;;;5052462;28;20013;-71
2021/09/19 12:21:55;;;;;;;;;;;;;;;;;;5052874;28;20009;-71
2021/09/19 12:24:22;;;;;;;;;;;;;;;;;;5052101;28;20487;-71
2021/09/19 12:26:49;;;;;;;;;;;;;;;;;;5052102;28;20030;-71
2021/09/19 12:29:18;;;;;;;;;;;;;;;;;;5052429;28;20009;-71
2021/09/19 12:31:45;;;;;;;;;;;;;;;;;;5052467;28;20017;-71
2021/09/19 12:34:11;;;;;;;;;;;;;;;;;;5053878;28;20013;-71
2021/09/19 12:36:39;;;;;;;;;;;;;;;;;;5051688;28;20029;-69
2021/09/19 12:39:05;;;;;;;;;;;;;;;;;;5051961;28;20530;-70
2021/09/19 12:41:32;;;;;;;;;;;;;;;;;;5052563;28;20010;-69
2021/09/19 12:43:59;;;;;;;;;;;;;;;;;;5052471;28;20010;-69
2021/09/19 12:46:26;;;;;;;;;;;;;;;;;;5051818;28;20032;-69
2021/09/19 12:48:53;;;;;;;;;;;;;;;;;;5052001;28;20010;-69
2021/09/19 12:51:20;;;;;;;;;;;;;;;;;;5052396;28;20010;-69
2021/09/19 12:53:47;;;;;;;;;;;;;;;;;;5051825;28;20036;-69
2021/09/19 12:56:14;;;;;;;;;;;;;;;;;;5051894;28;20026;-69
2021/09/19 12:58:41;;;;;;;;;;;;;;;;;;5052232;28;20010;-68
2021/09/19 13:01:09;;;;;;;;;;;;;;;;;;5051958;28;20013;-69
2021/09/19 13:03:36;;;;;;;;;;;;;;;;;;5051706;28;20009;-69
2021/09/19 13:06:03;;;;;;;;;;;;;;;;;;5051549;28;20025;-68
2021/09/19 13:08:30;;;;;;;;;;;;;;;;;;5052016;28;20013;-69
2021/09/19 13:10:57;;;;;;;;;;;;;;;;;;5051837;28;20025;-69
2021/09/19 13:13:24;;;;;;;;;;;;;;;;;;5051445;28;20022;-69
2021/09/19 13:15:51;;;;;;;;;;;;;;;;;;5051816;28;20033;-68
2021/09/19 13:18:19;;;;;;;;;;;;;;;;;;5052032;28;20036;-69
2021/09/19 13:20:46;;;;;;;;;;;;;;;;;;5051941;28;20013;-69
2021/09/19 13:23:13;;;;;;;;;;;;;;;;;;5051664;28;20016;-69
2021/09/19 13:25:39;;;;;;;;;;;;;;;;;;5051311;28;20522;-69
2021/09/19 13:28:09;;;;;;;;;;;;;;;;;;5052020;28;20006;-69
2021/09/19 13:30:36;;;;;;;;;;;;;;;;;;5051897;28;20016;-69
2021/09/19 13:33:03;;;;;;;;;;;;;;;;;;5051294;28;20493;-69
2021/09/19 13:35:30;;;;;;;;;;;;;;;;;;5051332;28;20029;-69
2021/09/19 13:37:57;;;;;;;;;;;;;;;;;;5051780;28;20016;-69
2021/09/19 13:40:23;;;;;;;;;;;;;;;;;;5051700;28;20013;-68
2021/09/19 13:42:50;;;;;;;;;;;;;;;;;;5051514;28;20009;-69
2021/09/19 13:45:18;;;;;;;;;;;;;;;;;;5051379;28;20040;-69
2021/09/19 13:47:44;;;;;;;;;;;;;;;;;;5051356;28;20017;-69
2021/09/19 13:50:11;;;;;;;;;;;;;;;;;;5051644;28;20040;-69
2021/09/19 13:52:38;;;;;;;;;;;;;;;;;;5055252;28;20026;-69
2021/09/19 13:55:05;;;;;;;;;;;;;;;;;;5055242;28;20009;-69
2021/09/19 13:57:32;;;;;;;;;;;;;;;;;;5055004;28;20373;-69
2021/09/19 13:59:59;;;;;;;;;;;;;;;;;;5055063;28;20010;-69
2021/09/19 14:02:26;;;;;;;;;;;;;;;;;;5055063;28;20009;-69
2021/09/19 14:04:53;;;;;;;;;;;;;;;;;;5055048;28;20387;-69
2021/09/19 14:07:20;;;;;;;;;;;;;;;;;;5055512;28;20032;-69
2021/09/19 14:09:47;;;;;;;;;;;;;;;;;;5055199;28;20013;-69
2021/09/19 14:12:14;;;;;;;;;;;;;;;;;;5054833;28;20049;-69
2021/09/19 14:14:41;;;;;;;;;;;;;;;;;;5054500;28;20457;-69
2021/09/19 14:17:09;;;;;;;;;;;;;;;;;;5055112;28;20033;-69
2021/09/19 14:19:36;;;;;;;;;;;;;;;;;;5055049;28;20032;-69
2021/09/19 14:22:02;;;;;;;;;;;;;;;;;;5054592;28;20017;-69
2021/09/19 14:24:29;;;;;;;;;;;;;;;;;;5055055;28;20010;-69
2021/09/19 14:26:56;;;;;;;;;;;;;;;;;;5073407;22;20034;-65
2021/09/19 14:29:23;;;;;;;;;;;;;;;;;;5039316;28;20367;-63
2021/09/19 14:31:50;;;;;;;;;;;;;;;;;;5042785;28;20013;-63
2021/09/19 14:34:17;;;;;;;;;;;;;;;;;;5034041;28;20026;-63
2021/09/19 14:36:46;;;;;;;;;;;;;;;;;;5034554;28;20033;-62
2021/09/19 14:39:13;;;;;;;;;;;;;;;;;;5034583;28;20010;-62
2021/09/19 14:41:40;;;;;;;;;;;;;;;;;;5034447;28;20010;-62
2021/09/19 14:44:07;;;;;;;;;;;;;;;;;;5034023;28;20496;-62
2021/09/19 14:46:34;;;;;;;;;;;;;;;;;;5034373;28;20025;-62
2021/09/19 14:49:01;;;;;;;;;;;;;;;;;;5034394;28;20017;-63
2021/09/19 14:51:28;;;;;;;;;;;;;;;;;;5034101;28;20373;-61
2021/09/19 14:53:55;;;;;;;;;;;;;;;;;;5034146;28;20026;-62
2021/09/19 14:56:22;;;;;;;;;;;;;;;;;;5034154;28;20030;-62
2021/09/19 14:58:49;;;;;;;;;;;;;;;;;;5034180;28;20072;-62
2021/09/19 15:01:16;;;;;;;;;;;;;;;;;;5034057;28;20010;-62
2021/09/19 15:03:43;;;;;;;;;;;;;;;;;;5033035;28;20366;-61
2021/09/19 15:06:10;;;;;;;;;;;;;;;;;;5033646;28;20026;-62
2021/09/19 15:08:37;;;;;;;;;;;;;;;;;;5034298;28;20014;-62
2021/09/19 15:11:04;;;;;;;;;;;;;;;;;;5033700;28;20464;-62
2021/09/19 15:13:31;;;;;;;;;;;;;;;;;;5033927;28;20026;-62
2021/09/19 15:15:58;;;;;;;;;;;;;;;;;;5034404;28;20017;-62
2021/09/19 15:18:25;;;;;;;;;;;;;;;;;;5034249;28;20060;-62
2021/09/19 15:20:52;;;;;;;;;;;;;;;;;;5034240;28;20009;-62
2021/09/19 15:23:19;;;;;;;;;;;;;;;;;;5033639;28;20469;-62
2021/09/19 15:25:46;;;;;;;;;;;;;;;;;;5033601;28;20017;-64
2021/09/19 15:28:13;;;;;;;;;;;;;;;;;;5034052;28;20010;-62
2021/09/19 15:30:40;;;;;;;;;;;;;;;;;;5034271;28;20010;-62
2021/09/19 15:33:06;;;;;;;;;;;;;;;;;;5036912;28;20063;-67
2021/09/19 15:35:33;;;;;;;;;;;;;;;;;;5041736;28;20016;-70
2021/09/19 15:38:00;;;;;;;;;;;;;;;;;;5039928;28;20026;-69
2021/09/19 15:40:27;;;;;;;;;;;;;;;;;;5033476;28;20018;-67
2021/09/19 15:42:54;;;;;;;;;;;;;;;;;;5034151;28;20010;-64
2021/09/19 15:45:21;;;;;;;;;;;;;;;;;;5033496;28;20009;-67
2021/09/19 15:47:48;;;;;;;;;;;;;;;;;;5033269;28;20520;-69
2021/09/19 15:50:15;;;;;;;;;;;;;;;;;;5033438;28;20017;-69
2021/09/19 15:52:44;;;;;;;;;;;;;;;;;;5033201;28;20057;-69
2021/09/19 15:55:11;;;;;;;;;;;;;;;;;;5033398;28;20097;-65
2021/09/19 15:57:40;;;;;;;;;;;;;;;;;;5033015;28;20052;-64
2021/09/19 16:00:07;;;;;;;;;;;;;;;;;;5033287;28;20447;-69
2021/09/19 16:02:34;;;;;;;;;;;;;;;;;;5033163;28;20010;-67
2021/09/19 16:05:01;;;;;;;;;;;;;;;;;;5032729;28;20496;-67
2021/09/19 16:07:28;;;;;;;;;;;;;;;;;;5032653;28;20025;-63
2021/09/19 16:09:55;;;;;;;;;;;;;;;;;;5033174;28;20112;-63
2021/09/19 16:12:22;;;;;;;;;;;;;;;;;;5033083;28;20010;-63
2021/09/19 16:14:49;;;;;;;;;;;;;;;;;;5032256;28;20520;-63
2021/09/19 16:17:15;;;;;;;;;;;;;;;;;;5032892;28;20033;-63
2021/09/19 16:19:42;;;;;;;;;;;;;;;;;;5033049;28;20009;-64
2021/09/19 16:22:09;;;;;;;;;;;;;;;;;;5032683;28;20014;-63
2021/09/19 16:24:36;;;;;;;;;;;;;;;;;;5032657;28;20010;-63
2021/09/19 16:27:03;;;;;;;;;;;;;;;;;;5032463;28;20034;-63
2021/09/19 16:29:30;;;;;;;;;;;;;;;;;;5032919;28;20010;-63
2021/09/19 16:31:57;;;;;;;;;;;;;;;;;;5032404;28;20018;-64
2021/09/19 16:34:24;;;;;;;;;;;;;;;;;;5032369;28;20026;-63
2021/09/19 16:36:51;;;;;;;;;;;;;;;;;;5032475;28;20051;-63
2021/09/19 16:39:18;;;;;;;;;;;;;;;;;;5032296;28;20515;-63
2021/09/19 16:41:45;;;;;;;;;;;;;;;;;;5032527;28;20009;-63
2021/09/19 16:44:12;;;;;;;;;;;;;;;;;;5032694;28;20010;-63